createdAt,value
2023-09-13T00:04:35.468Z,29.74
2023-09-13T00:09:39.595Z,29.75
2023-09-13T00:14:41.495Z,29.72
2023-09-13T00:19:43.512Z,29.77
2023-09-13T00:24:46.798Z,29.77
2023-09-13T00:29:49.272Z,29.73
2023-09-13T00:34:51.706Z,29.72
2023-09-13T00:39:53.743Z,29.74
2023-09-13T00:44:55.676Z,29.71
2023-09-13T00:49:57.646Z,29.71
2023-09-13T00:55:00.030Z,29.70
2023-09-13T01:00:10.202Z,29.72
2023-09-13T01:05:15.023Z,29.74
2023-09-13T01:10:17.025Z,29.72
2023-09-13T01:15:19.207Z,29.76
2023-09-13T01:20:45.815Z,29.72
2023-09-13T01:26:06.456Z,29.70
2023-09-13T01:31:12.835Z,29.70
2023-09-13T01:36:15.461Z,29.69
2023-09-13T01:41:26.296Z,29.72
2023-09-13T01:46:34.485Z,29.72
2023-09-13T01:51:37.324Z,29.69
2023-09-13T01:56:39.239Z,29.70
2023-09-13T02:01:41.492Z,29.73
2023-09-13T02:06:43.564Z,29.74
2023-09-13T02:11:45.526Z,29.70
2023-09-13T02:16:47.568Z,29.69
2023-09-13T02:21:49.755Z,29.68
2023-09-13T02:26:58.921Z,29.71
2023-09-13T02:32:01.191Z,29.74
2023-09-13T02:37:03.263Z,29.71
2023-09-13T02:42:06.835Z,29.75
2023-09-13T02:47:08.951Z,29.71
2023-09-13T02:52:10.935Z,29.71
2023-09-13T02:57:13.064Z,29.70
2023-09-13T03:02:15.068Z,29.72
2023-09-13T03:07:17.317Z,29.73
2023-09-13T03:12:19.398Z,29.71
2023-09-13T03:17:21.290Z,29.77
2023-09-13T03:22:23.232Z,29.75
2023-09-13T03:27:25.127Z,29.73
2023-09-13T03:32:27.367Z,29.80
2023-09-13T03:37:29.679Z,29.71
2023-09-13T03:42:31.641Z,29.70
2023-09-13T03:47:33.721Z,29.70
2023-09-13T03:52:35.619Z,29.70
2023-09-13T03:57:37.532Z,29.71
2023-09-13T04:02:39.434Z,29.67
2023-09-13T04:07:41.389Z,29.67
2023-09-13T04:12:43.333Z,29.68
2023-09-13T04:17:45.471Z,29.66
2023-09-13T04:22:47.972Z,29.67
2023-09-13T04:27:50.121Z,29.66
2023-09-13T04:32:52.775Z,29.66
2023-09-13T04:37:55.463Z,29.69
2023-09-13T04:43:17.306Z,29.67
2023-09-13T04:48:19.342Z,29.66
2023-09-13T04:53:21.326Z,29.68
2023-09-13T04:58:23.388Z,29.67
2023-09-13T05:03:25.699Z,29.69
2023-09-13T05:08:27.625Z,29.65
2023-09-13T05:13:29.644Z,29.69
2023-09-13T05:18:31.848Z,29.66
2023-09-13T05:23:33.986Z,29.67
2023-09-13T05:28:35.930Z,29.70
2023-09-13T05:33:38.012Z,29.73
2023-09-13T05:38:40.630Z,29.66
2023-09-13T05:43:44.468Z,29.62
2023-09-13T05:48:46.925Z,29.62
2023-09-13T05:53:48.908Z,29.65
2023-09-13T05:58:50.911Z,29.64
2023-09-13T06:03:52.987Z,29.63
2023-09-13T06:08:55.004Z,29.63
2023-09-13T06:13:57.010Z,29.66
2023-09-13T06:18:58.958Z,29.63
2023-09-13T06:24:00.971Z,29.61
2023-09-13T06:29:03.622Z,29.69
2023-09-13T06:34:22.450Z,29.71
2023-09-13T06:39:27.889Z,29.69
2023-09-13T06:44:43.117Z,29.75
2023-09-13T06:49:49.301Z,29.70
2023-09-13T06:54:53.299Z,29.67
2023-09-13T07:00:00.584Z,29.36
2023-09-13T07:10:09.537Z,29.26
2023-09-13T07:15:11.635Z,29.23
2023-09-13T07:20:13.636Z,29.16
2023-09-13T07:25:15.823Z,29.07
2023-09-13T07:30:17.784Z,29.01
2023-09-13T07:35:21.923Z,28.95
2023-09-13T07:40:23.814Z,28.90
2023-09-13T07:45:26.160Z,28.78
2023-09-13T07:50:38.504Z,28.71
2023-09-13T07:55:41.490Z,28.73
2023-09-13T08:00:45.246Z,28.84
2023-09-13T08:05:49.056Z,28.88
2023-09-13T08:10:51.784Z,28.78
2023-09-13T08:15:54.162Z,28.68
2023-09-13T08:20:56.091Z,28.73
2023-09-13T08:26:08.686Z,28.70
2023-09-13T08:31:19.461Z,28.65
2023-09-13T08:36:21.592Z,28.68
2023-09-13T08:41:23.759Z,28.68
2023-09-13T08:46:26.342Z,28.61
2023-09-13T08:51:30.240Z,28.65
2023-09-13T08:56:32.872Z,28.57
2023-09-13T09:01:35.185Z,28.61
2023-09-13T09:06:37.888Z,28.62
2023-09-13T09:11:44.449Z,28.55
2023-09-13T09:16:48.306Z,28.57
2023-09-13T09:21:50.586Z,28.41
2023-09-13T09:26:55.813Z,28.44
2023-09-13T09:31:59.799Z,28.37
2023-09-13T09:37:08.644Z,28.32
2023-09-13T09:42:17.300Z,28.37
2023-09-13T09:47:20.193Z,28.44
2023-09-13T09:52:22.157Z,28.46
2023-09-13T09:57:24.679Z,28.24
2023-09-13T10:02:29.850Z,28.31
2023-09-13T10:07:32.198Z,28.28
2023-09-13T10:12:45.432Z,28.22
2023-09-13T10:17:49.742Z,28.24
2023-09-13T10:22:57.595Z,28.32
2023-09-13T10:28:02.616Z,28.35
2023-09-13T10:33:05.389Z,28.34
2023-09-13T10:38:16.288Z,28.35
2023-09-13T10:43:19.026Z,28.26
2023-09-13T10:48:22.797Z,28.29
2023-09-13T10:53:27.426Z,28.21
2023-09-13T10:58:31.139Z,28.21
2023-09-13T11:03:33.941Z,28.29
2023-09-13T11:08:36.029Z,28.25
2023-09-13T11:13:38.418Z,28.19
2023-09-13T11:18:49.916Z,28.15
2023-09-13T11:28:59.265Z,28.21
2023-09-13T11:34:01.188Z,28.14
2023-09-13T11:39:03.195Z,28.25
2023-09-13T11:44:05.597Z,28.23
2023-09-13T11:49:08.198Z,28.19
2023-09-13T11:54:17.364Z,28.25
2023-09-13T11:59:28.057Z,28.23
2023-09-13T12:09:39.499Z,28.22
2023-09-13T12:19:48.958Z,28.19
2023-09-13T12:24:54.224Z,28.21
2023-09-13T12:29:56.149Z,28.22
2023-09-13T12:34:58.418Z,28.22
2023-09-13T12:40:11.592Z,28.18
2023-09-13T12:45:14.013Z,28.18
2023-09-13T12:50:32.487Z,28.25
2023-09-13T12:55:35.637Z,28.26
2023-09-13T13:00:55.952Z,28.21
2023-09-13T13:06:04.197Z,28.18
2023-09-13T13:11:07.402Z,28.21
2023-09-13T13:16:30.767Z,28.27
2023-09-13T13:21:42.497Z,28.30
2023-09-13T13:26:44.588Z,28.26
2023-09-13T13:31:47.603Z,28.27
2023-09-13T13:36:49.536Z,28.27
2023-09-13T13:41:51.640Z,28.23
2023-09-13T13:46:53.657Z,28.14
2023-09-13T13:51:55.540Z,28.25
2023-09-13T13:57:01.135Z,28.24
2023-09-13T14:02:03.676Z,28.23
2023-09-13T14:07:05.563Z,28.23
2023-09-13T14:12:08.003Z,28.21
2023-09-13T14:17:10.069Z,28.23
2023-09-13T14:22:11.948Z,28.23
2023-09-13T14:27:15.274Z,28.28
2023-09-13T14:32:19.070Z,28.27
2023-09-13T14:37:21.033Z,28.29
2023-09-13T14:42:23.227Z,28.26
2023-09-13T14:47:27.975Z,28.29
2023-09-13T14:52:37.594Z,28.27
2023-09-13T14:57:39.827Z,28.30
2023-09-13T15:02:43.875Z,28.30
2023-09-13T15:07:45.902Z,28.31
2023-09-13T15:12:48.540Z,28.29
2023-09-13T15:17:50.626Z,28.30
2023-09-13T15:22:52.511Z,28.31
2023-09-13T15:27:54.471Z,28.23
2023-09-13T15:32:56.497Z,28.19
2023-09-13T15:37:58.559Z,28.36
2023-09-13T15:43:00.763Z,28.31
2023-09-13T15:48:02.828Z,28.31
2023-09-13T15:53:04.873Z,28.28
2023-09-13T15:58:06.704Z,28.34
2023-09-13T16:03:09.100Z,28.33
2023-09-13T16:08:11.028Z,28.34
2023-09-13T16:13:12.901Z,28.29
2023-09-13T16:18:14.898Z,28.30
2023-09-13T16:23:18.731Z,28.33
2023-09-13T16:28:20.769Z,28.27
2023-09-13T16:33:22.818Z,28.33
2023-09-13T16:38:24.704Z,28.30
2023-09-13T16:43:26.837Z,28.23
2023-09-13T16:48:34.885Z,28.31
2023-09-13T16:53:37.335Z,28.26
2023-09-13T16:58:39.169Z,28.36
2023-09-13T17:03:42.398Z,28.37
2023-09-13T17:08:44.836Z,28.36
2023-09-13T17:13:48.695Z,28.38
2023-09-13T17:18:50.650Z,28.43
2023-09-13T17:23:52.859Z,28.34
2023-09-13T17:28:54.754Z,28.34
2023-09-13T17:33:56.742Z,28.33
2023-09-13T17:38:58.599Z,28.32
2023-09-13T17:44:00.504Z,28.31
2023-09-13T17:49:02.645Z,28.35
2023-09-13T17:54:04.652Z,28.38
2023-09-13T17:59:06.685Z,28.34
2023-09-13T18:04:08.676Z,28.42
2023-09-13T18:09:10.727Z,28.38
2023-09-13T18:14:12.754Z,28.40
2023-09-13T18:19:14.711Z,28.38
2023-09-13T18:24:22.814Z,28.41
2023-09-13T18:29:31.714Z,28.38
2023-09-13T18:34:41.452Z,28.49
2023-09-13T18:39:43.421Z,28.50
2023-09-13T18:44:45.406Z,28.47
2023-09-13T18:49:47.347Z,28.55
2023-09-13T18:54:49.394Z,28.58
2023-09-13T18:59:51.611Z,28.61
2023-09-13T19:04:53.664Z,28.61
2023-09-13T19:09:55.647Z,28.60
2023-09-13T19:14:57.617Z,28.64
2023-09-13T19:19:59.536Z,28.65
2023-09-13T19:25:01.612Z,28.66
2023-09-13T19:30:03.815Z,28.67
2023-09-13T19:35:06.191Z,28.62
2023-09-13T19:40:09.268Z,28.64
2023-09-13T19:45:11.442Z,28.42
2023-09-13T19:50:13.304Z,28.36
2023-09-13T19:55:15.427Z,28.41
2023-09-13T20:00:17.667Z,28.37
2023-09-13T20:05:20.993Z,28.39
2023-09-13T20:10:25.694Z,28.43
2023-09-13T20:15:27.729Z,28.47
2023-09-13T20:20:29.677Z,28.48
2023-09-13T20:25:36.593Z,28.51
2023-09-13T20:30:40.529Z,28.53
2023-09-13T20:35:44.424Z,28.54
2023-09-13T20:40:46.563Z,28.49
2023-09-13T20:45:50.452Z,28.52
2023-09-13T20:50:53.283Z,28.48
2023-09-13T20:55:55.341Z,28.49
2023-09-13T21:00:57.269Z,28.48
2023-09-13T21:05:59.113Z,28.52
2023-09-13T21:11:02.440Z,28.56
2023-09-13T21:16:07.213Z,28.58
2023-09-13T21:21:10.208Z,28.55
2023-09-13T21:26:12.213Z,28.56
2023-09-13T21:31:14.203Z,28.62
2023-09-13T21:36:16.234Z,28.61
2023-09-13T21:41:18.200Z,28.63
2023-09-13T21:46:20.269Z,28.58
2023-09-13T21:51:22.346Z,28.61
2023-09-13T21:56:24.273Z,28.61
2023-09-13T22:01:26.547Z,28.63
2023-09-13T22:06:28.510Z,28.61
2023-09-13T22:11:30.534Z,28.57
2023-09-13T22:16:32.686Z,28.61
2023-09-13T22:21:35.348Z,28.58
2023-09-13T22:26:37.295Z,28.61
2023-09-13T22:31:39.333Z,28.65
2023-09-13T22:36:41.387Z,28.63
2023-09-13T22:41:44.237Z,28.65
2023-09-13T22:46:47.383Z,28.60
2023-09-13T22:51:50.382Z,28.58
2023-09-13T22:56:52.552Z,28.62
2023-09-13T23:01:54.474Z,28.62
2023-09-13T23:06:56.515Z,28.56
2023-09-13T23:11:58.482Z,28.59
2023-09-13T23:17:00.431Z,28.62
2023-09-13T23:22:03.808Z,28.60
2023-09-13T23:43:30.362Z,28.56
2023-09-13T23:48:33.816Z,28.57
2023-09-13T23:53:36.868Z,28.57
2023-09-13T23:58:38.656Z,28.61
